Slagle, Louisiana
Current Conditions -  °F | °C
As of 10:58 PM on Wednesday 22 Oct 2014 (Local Time) from KPOE Reporting Station
Clear Clear  
Wind Chill: 62°   Ceiling: Unl
Heat Index: 62°   Visibility: 10mi
Dew Point: 53°   Wind: 7mph
Humidity: 75%   Direction: 20°NNE
Pressure: 30.13"   Gusts: NA
Location:  31.2°N, 93.13°W
Report Text: KPOE 230358Z AUTO 02006KT 10SM CLR 16/12 A3013 RMK AO2 SLP203 T01640119
Loading
Personal Weather Stations






























Interactive Weather Map
Tropical Storm Tracking
New forecast layout! Learn more

10-Day Weather Forecast

Advertisements
Track Severe Weather on mobile